Terminal Aerodrome Forecast
Issued by NWS Jackson, KY

Home | Current Version | Previous Version | Text Only | Print | Product List | Glossary On
Versions: 1 2 3 4 5 6 7 8 9 10 11 12 13 14 15 16 17 18 19
000
FTUS43 KJKL 191742
TAFJKL
TAF
KJKL 191742Z 1918/2018 14006KT P6SM VCSH BKN050 OVC070
     FM191900 15007G15KT P6SM VCSH BKN025 OVC050
     FM192000 15007G15KT P6SM VCTS BKN035CB BKN250
     FM200400 19005KT P6SM VCSH SCT025 BKN050
     FM200800 21008KT P6SM BKN015 OVC025
     FM201300 23010G17KT 5SM BR VCSH BKN025 OVC050=

USA.gov is the U.S. government's official web portal to all federal, state and local government web resources and services.